createdAt,value
2019-05-28T00:01:25.155Z,15.60
2019-05-28T00:03:55.252Z,15.60
2019-05-28T00:06:25.353Z,15.60
2019-05-28T00:08:55.494Z,15.60
2019-05-28T00:11:25.697Z,15.60
2019-05-28T00:13:55.820Z,15.60
2019-05-28T00:16:25.921Z,15.60
2019-05-28T00:19:06.989Z,15.60
2019-05-28T00:21:37.271Z,15.60
2019-05-28T00:24:27.164Z,15.60
2019-05-28T00:26:57.301Z,15.60
2019-05-28T00:29:35.862Z,15.60
2019-05-28T00:32:06.082Z,15.70
2019-05-28T00:34:36.206Z,15.60
2019-05-28T00:37:06.329Z,15.60
2019-05-28T00:39:36.459Z,15.70
2019-05-28T00:42:06.547Z,15.60
2019-05-28T00:44:36.745Z,15.60
2019-05-28T00:47:07.166Z,15.60
2019-05-28T00:49:37.334Z,15.70
2019-05-28T00:52:07.471Z,15.70
2019-05-28T00:54:37.576Z,15.70
2019-05-28T00:57:07.696Z,15.60
2019-05-28T00:59:38.397Z,15.60
2019-05-28T01:02:17.165Z,15.60
2019-05-28T01:04:47.365Z,15.60
2019-05-28T01:07:39.595Z,15.60
2019-05-28T01:10:10.210Z,15.60
2019-05-28T01:13:00.511Z,15.60
2019-05-28T01:15:25.393Z,15.60
2019-05-28T01:17:55.636Z,15.60
2019-05-28T01:20:25.833Z,15.60
2019-05-28T01:22:55.924Z,15.50
2019-05-28T01:25:26.036Z,15.60
2019-05-28T01:27:56.171Z,15.60
2019-05-28T01:30:26.272Z,15.60
2019-05-28T01:32:56.400Z,15.60
2019-05-28T01:35:26.520Z,15.70
2019-05-28T01:37:56.629Z,15.70
2019-05-28T01:40:26.804Z,15.70
2019-05-28T01:42:56.910Z,15.70
2019-05-28T01:45:31.677Z,15.70
2019-05-28T01:48:01.807Z,15.70
2019-05-28T01:50:50.611Z,15.70
2019-05-28T01:53:20.744Z,15.70
2019-05-28T01:55:53.351Z,15.70
2019-05-28T01:58:23.443Z,15.70
2019-05-28T02:01:09.290Z,15.60
2019-05-28T02:03:25.321Z,15.60
2019-05-28T02:05:55.440Z,15.60
2019-05-28T02:08:25.589Z,15.60
2019-05-28T02:10:55.685Z,15.60
2019-05-28T02:13:25.854Z,15.60
2019-05-28T02:15:55.973Z,15.50
2019-05-28T02:18:26.077Z,15.50
2019-05-28T02:20:56.209Z,15.50
2019-05-28T02:23:26.352Z,15.50
2019-05-28T02:25:56.468Z,15.50
2019-05-28T02:28:39.729Z,15.50
2019-05-28T02:31:09.957Z,15.50
2019-05-28T02:33:58.636Z,15.50
2019-05-28T02:36:28.775Z,15.50
2019-05-28T02:38:58.877Z,15.50
2019-05-28T02:41:28.978Z,15.60
2019-05-28T02:43:59.097Z,15.50
2019-05-28T02:46:29.200Z,15.50
2019-05-28T02:49:07.137Z,15.50
2019-05-28T02:51:37.293Z,15.50
2019-05-28T02:54:07.409Z,15.50
2019-05-28T02:56:39.528Z,15.50
2019-05-28T02:59:11.889Z,15.50
2019-05-28T03:01:45.030Z,15.50
2019-05-28T03:04:16.641Z,15.50
2019-05-28T03:06:48.649Z,15.50
2019-05-28T03:09:21.345Z,15.60
2019-05-28T03:11:54.492Z,15.60
2019-05-28T03:14:24.619Z,15.60
2019-05-28T03:17:14.600Z,15.70
2019-05-28T03:19:46.516Z,15.70
2019-05-28T03:22:42.546Z,15.80
2019-05-28T03:25:12.769Z,15.90
2019-05-28T03:28:00.949Z,15.80
2019-05-28T03:30:30.979Z,15.90
2019-05-28T03:33:01.106Z,15.90
2019-05-28T03:35:31.597Z,16.00
2019-05-28T03:38:03.496Z,15.90
2019-05-28T03:40:44.053Z,16.00
2019-05-28T03:43:14.664Z,16.00
2019-05-28T03:45:44.786Z,16.00
2019-05-28T03:48:15.009Z,16.10
2019-05-28T03:50:45.158Z,16.20
2019-05-28T03:53:15.265Z,16.30
2019-05-28T03:55:45.390Z,16.20
2019-05-28T03:58:15.477Z,16.30
2019-05-28T04:00:45.605Z,16.30
2019-05-28T04:03:15.898Z,16.40
2019-05-28T04:06:03.899Z,16.50
2019-05-28T04:08:34.050Z,16.60
2019-05-28T04:11:12.186Z,16.70
2019-05-28T04:13:42.246Z,16.60
2019-05-28T04:16:12.335Z,16.70
2019-05-28T04:18:42.640Z,16.60
2019-05-28T04:21:12.728Z,16.70
2019-05-28T04:23:42.909Z,16.70
2019-05-28T04:26:13.083Z,16.70
2019-05-28T04:28:46.711Z,16.80
2019-05-28T04:31:19.794Z,16.90
2019-05-28T04:33:49.939Z,17.10
2019-05-28T04:36:20.073Z,17.20
2019-05-28T04:38:50.280Z,17.30
2019-05-28T04:41:20.409Z,17.30
2019-05-28T04:43:50.541Z,17.40
2019-05-28T04:46:20.666Z,17.40
2019-05-28T04:48:50.826Z,17.50
2019-05-28T04:51:20.957Z,17.60
2019-05-28T04:53:51.102Z,17.70
2019-05-28T04:56:21.215Z,17.60
2019-05-28T04:58:51.340Z,17.80
2019-05-28T05:01:21.477Z,17.80
2019-05-28T05:03:54.582Z,18.00
2019-05-28T05:06:24.728Z,18.10
2019-05-28T05:09:15.669Z,18.20
2019-05-28T05:11:45.823Z,18.40
2019-05-28T05:14:24.230Z,18.50
2019-05-28T05:16:54.457Z,18.60
2019-05-28T05:19:24.577Z,18.50
2019-05-28T05:21:54.718Z,18.40
2019-05-28T05:24:24.840Z,18.40
2019-05-28T05:26:54.985Z,18.40
2019-05-28T05:29:25.083Z,18.30
2019-05-28T05:31:55.221Z,18.20
2019-05-28T05:34:25.341Z,18.30
2019-05-28T05:36:55.485Z,18.30
2019-05-28T05:39:25.618Z,18.40
2019-05-28T05:41:55.963Z,18.60
2019-05-28T05:44:26.065Z,18.50
2019-05-28T05:47:05.664Z,18.70
2019-05-28T05:49:35.791Z,18.50
2019-05-28T05:52:32.027Z,18.70
2019-05-28T05:55:02.247Z,18.60
2019-05-28T05:57:56.415Z,18.50
2019-05-28T06:00:26.614Z,18.50
2019-05-28T06:03:16.741Z,18.60
2019-05-28T06:05:46.904Z,18.80
2019-05-28T06:08:26.526Z,19.10
2019-05-28T06:10:56.633Z,19.20
2019-05-28T06:13:26.783Z,19.40
2019-05-28T06:15:56.897Z,19.70
2019-05-28T06:18:27.089Z,19.60
2019-05-28T06:21:10.401Z,19.60
2019-05-28T06:23:29.208Z,19.60
2019-05-28T06:25:59.334Z,19.60
2019-05-28T06:28:29.455Z,19.70
2019-05-28T06:30:59.589Z,20.00
2019-05-28T06:33:29.753Z,20.30
2019-05-28T06:35:59.945Z,20.50
2019-05-28T06:38:30.024Z,20.30
2019-05-28T06:41:06.204Z,20.30
2019-05-28T06:43:36.323Z,20.40
2019-05-28T06:46:31.399Z,20.10
2019-05-28T06:49:01.815Z,20.40
2019-05-28T06:51:53.407Z,21.00
2019-05-28T06:54:23.561Z,21.20
2019-05-28T06:57:22.454Z,21.70
2019-05-28T06:59:41.936Z,21.70
2019-05-28T07:02:12.085Z,22.30
2019-05-28T07:04:42.233Z,22.20
2019-05-28T07:07:12.378Z,21.90
2019-05-28T07:09:42.535Z,21.70
2019-05-28T07:12:12.637Z,21.40
2019-05-28T07:14:42.775Z,21.50
2019-05-28T07:17:12.961Z,21.60
2019-05-28T07:19:43.098Z,21.90
2019-05-28T07:22:13.214Z,22.30
2019-05-28T07:24:43.337Z,22.20
2019-05-28T07:27:13.473Z,22.40
2019-05-28T07:29:59.874Z,22.40
2019-05-28T07:32:30.011Z,22.50
2019-05-28T07:35:19.698Z,22.70
2019-05-28T07:37:49.798Z,23.00
2019-05-28T07:40:31.199Z,23.00
2019-05-28T07:42:51.674Z,22.90
2019-05-28T07:45:21.869Z,22.80
2019-05-28T07:47:51.982Z,22.20
2019-05-28T07:50:22.120Z,21.90
2019-05-28T07:52:52.208Z,21.60
2019-05-28T07:55:22.353Z,21.30
2019-05-28T07:57:52.469Z,20.90
2019-05-28T08:00:35.987Z,20.80
2019-05-28T08:03:07.130Z,20.70
2019-05-28T08:05:37.366Z,20.40
2019-05-28T08:08:10.089Z,20.20
2019-05-28T08:10:40.339Z,20.30
2019-05-28T08:13:40.234Z,20.20
2019-05-28T08:16:17.533Z,20.10
2019-05-28T08:18:51.229Z,20.10
2019-05-28T08:21:21.469Z,20.90
2019-05-28T08:24:14.016Z,22.00
2019-05-28T08:26:44.156Z,22.80
2019-05-28T08:29:14.312Z,22.90
2019-05-28T08:31:44.460Z,22.90
2019-05-28T08:34:18.950Z,22.70
2019-05-28T08:37:01.799Z,23.20
2019-05-28T08:39:18.264Z,23.10
2019-05-28T08:41:48.430Z,23.20
2019-05-28T08:44:18.600Z,23.10
2019-05-28T08:46:48.824Z,23.90
2019-05-28T08:49:19.040Z,24.40
2019-05-28T08:51:49.263Z,24.40
2019-05-28T08:54:19.421Z,24.70
2019-05-28T08:56:52.564Z,24.50
2019-05-28T08:59:22.689Z,24.40
2019-05-28T09:01:53.736Z,24.50
2019-05-28T09:04:23.860Z,24.50
2019-05-28T09:06:53.994Z,24.60
2019-05-28T09:09:24.119Z,24.60
2019-05-28T09:11:54.292Z,24.70
2019-05-28T09:14:24.401Z,25.00
2019-05-28T09:16:54.556Z,24.90
2019-05-28T09:19:24.666Z,24.80
2019-05-28T09:21:54.963Z,24.70
2019-05-28T09:24:27.774Z,24.30
2019-05-28T09:26:56.830Z,24.30
2019-05-28T09:29:26.981Z,24.50
2019-05-28T09:31:57.142Z,24.40
2019-05-28T09:34:27.272Z,23.60
2019-05-28T09:36:57.470Z,24.10
2019-05-28T09:39:27.588Z,24.30
2019-05-28T09:41:57.731Z,24.50
2019-05-28T09:44:27.859Z,24.50
2019-05-28T09:46:57.965Z,24.60
2019-05-28T09:49:28.105Z,25.20
2019-05-28T09:52:01.203Z,25.80
2019-05-28T09:54:31.340Z,26.20
2019-05-28T09:57:01.515Z,25.80
2019-05-28T09:59:41.275Z,25.60
2019-05-28T10:02:03.372Z,25.60
2019-05-28T10:04:48.034Z,25.20
2019-05-28T10:07:05.424Z,25.10
2019-05-28T10:09:35.497Z,24.70
2019-05-28T10:12:05.746Z,24.90
2019-05-28T10:14:35.912Z,25.30
2019-05-28T10:17:06.477Z,26.00
2019-05-28T10:19:36.912Z,26.50
2019-05-28T10:22:07.117Z,26.80
2019-05-28T10:24:37.205Z,26.70
2019-05-28T10:27:07.419Z,26.80
2019-05-28T10:29:58.925Z,27.10
2019-05-28T10:32:29.100Z,26.80
2019-05-28T10:35:03.877Z,26.30
2019-05-28T10:37:30.923Z,25.70
2019-05-28T10:40:01.019Z,25.50
2019-05-28T10:42:31.161Z,25.10
2019-05-28T10:45:01.240Z,24.70
2019-05-28T10:47:31.389Z,24.70
2019-05-28T10:50:01.494Z,24.80
2019-05-28T10:52:31.597Z,25.20
2019-05-28T10:55:02.796Z,25.10
2019-05-28T10:57:33.236Z,24.80
2019-05-28T11:00:03.994Z,25.40
2019-05-28T11:02:34.326Z,25.80
2019-05-28T11:05:06.170Z,25.70
2019-05-28T11:07:51.776Z,25.40
2019-05-28T11:10:24.703Z,25.60
2019-05-28T11:12:54.254Z,25.70
2019-05-28T11:15:26.297Z,25.50
2019-05-28T11:17:56.447Z,25.80
2019-05-28T11:20:26.712Z,25.60
2019-05-28T11:22:56.924Z,25.70
2019-05-28T11:25:27.241Z,26.10
2019-05-28T11:27:57.396Z,26.70
2019-05-28T11:30:27.467Z,26.70
2019-05-28T11:32:57.711Z,26.50
2019-05-28T11:35:28.317Z,26.30
2019-05-28T11:37:58.508Z,26.00
2019-05-28T11:40:47.226Z,25.70
2019-05-28T11:43:17.353Z,26.30
2019-05-28T11:45:47.435Z,26.30
2019-05-28T11:48:17.559Z,26.30
2019-05-28T11:50:47.690Z,26.10
2019-05-28T11:53:17.873Z,26.20
2019-05-28T11:55:47.990Z,27.00
2019-05-28T11:58:18.127Z,27.10
2019-05-28T12:00:49.303Z,27.30
2019-05-28T12:03:19.495Z,27.30
2019-05-28T12:05:49.711Z,27.20
2019-05-28T12:08:19.888Z,27.00
2019-05-28T12:10:50.061Z,26.70
2019-05-28T12:13:38.968Z,26.80
2019-05-28T12:16:09.166Z,27.00
2019-05-28T12:18:50.673Z,27.00
2019-05-28T12:21:19.448Z,26.90
2019-05-28T12:23:49.908Z,27.90
2019-05-28T12:26:20.054Z,28.20
2019-05-28T12:28:50.149Z,28.20
2019-05-28T12:31:20.397Z,27.40
2019-05-28T12:33:50.591Z,27.30
2019-05-28T12:36:20.746Z,27.20
2019-05-28T12:38:50.876Z,27.70
2019-05-28T12:41:21.000Z,27.90
2019-05-28T12:43:51.457Z,28.20
2019-05-28T12:46:21.648Z,28.00
2019-05-28T12:48:52.418Z,28.30
2019-05-28T12:51:41.827Z,28.70
2019-05-28T12:54:12.222Z,28.40
2019-05-28T12:56:42.415Z,28.70
2019-05-28T12:59:12.520Z,30.40
2019-05-28T13:01:42.648Z,31.80
2019-05-28T13:04:12.887Z,32.70
2019-05-28T13:06:43.261Z,33.50
2019-05-28T13:09:13.421Z,32.40
2019-05-28T13:11:43.585Z,29.30
2019-05-28T13:14:13.755Z,31.00
2019-05-28T13:16:43.871Z,31.70
2019-05-28T13:19:14.193Z,33.00
2019-05-28T13:21:44.317Z,34.10
2019-05-28T13:24:27.624Z,34.60
2019-05-28T13:26:57.787Z,33.90
2019-05-28T13:29:47.965Z,33.00
2019-05-28T13:32:18.188Z,34.40
2019-05-28T13:34:48.476Z,30.90
2019-05-28T13:37:18.858Z,29.90
2019-05-28T13:39:49.042Z,29.70
2019-05-28T13:42:19.143Z,29.80
2019-05-28T13:44:49.360Z,29.50
2019-05-28T13:47:33.073Z,29.40
2019-05-28T13:49:51.184Z,29.20
2019-05-28T13:52:21.383Z,29.50
2019-05-28T13:54:51.482Z,29.10
2019-05-28T13:57:27.193Z,28.90
2019-05-28T13:59:58.636Z,28.70
2019-05-28T14:02:47.570Z,28.20
2019-05-28T14:05:20.184Z,27.70
2019-05-28T14:10:42.621Z,26.80
2019-05-28T14:13:12.729Z,26.40
2019-05-28T14:15:42.885Z,26.20
2019-05-28T14:18:13.004Z,25.90
2019-05-28T14:20:43.166Z,25.90
2019-05-28T14:23:13.561Z,25.50
2019-05-28T14:25:44.293Z,25.50
2019-05-28T14:28:14.425Z,25.50
2019-05-28T14:30:59.315Z,25.50
2019-05-28T14:33:16.576Z,25.80
2019-05-28T14:35:46.685Z,26.00
2019-05-28T14:38:16.805Z,26.20
2019-05-28T14:40:46.949Z,26.40
2019-05-28T14:43:17.046Z,26.50
2019-05-28T14:45:47.158Z,26.90
2019-05-28T14:48:17.270Z,26.90
2019-05-28T14:50:47.436Z,26.20
2019-05-28T14:53:18.525Z,25.80
2019-05-28T14:55:48.638Z,25.60
2019-05-28T14:58:18.786Z,25.30
2019-05-28T15:00:49.197Z,24.90
2019-05-28T15:03:19.364Z,24.70
2019-05-28T15:05:49.478Z,24.30
2019-05-28T15:08:19.638Z,24.10
2019-05-28T15:10:49.744Z,23.90
2019-05-28T15:13:30.655Z,23.90
2019-05-28T15:16:00.758Z,23.80
2019-05-28T15:18:56.321Z,23.70
2019-05-28T15:21:26.441Z,23.60
2019-05-28T15:24:22.293Z,23.50
2019-05-28T15:26:52.414Z,23.40
2019-05-28T15:29:42.747Z,23.20
2019-05-28T15:32:12.848Z,23.00
2019-05-28T15:37:35.171Z,22.50
2019-05-28T15:40:11.887Z,22.30
2019-05-28T15:42:44.710Z,21.90
2019-05-28T15:45:15.070Z,21.30
2019-05-28T15:47:45.342Z,20.80
2019-05-28T15:50:16.325Z,20.50
2019-05-28T15:52:46.531Z,20.40
2019-05-28T15:55:16.778Z,20.20
2019-05-28T15:57:47.002Z,20.10
2019-05-28T16:00:20.620Z,20.00
2019-05-28T16:02:53.501Z,19.90
2019-05-28T16:05:23.656Z,20.00
2019-05-28T16:07:54.154Z,20.10
2019-05-28T16:10:24.240Z,20.40
2019-05-28T16:12:57.616Z,20.60
2019-05-28T16:15:27.725Z,20.70
2019-05-28T16:18:21.170Z,20.80
2019-05-28T16:20:51.358Z,20.60
2019-05-28T16:23:51.261Z,21.00
2019-05-28T16:26:21.429Z,20.90
2019-05-28T16:29:06.122Z,20.70
2019-05-28T16:31:39.239Z,20.70
2019-05-28T16:34:31.821Z,20.50
2019-05-28T16:37:01.998Z,20.30
2019-05-28T16:39:53.773Z,20.10
2019-05-28T16:42:23.923Z,20.00
2019-05-28T16:44:57.115Z,19.80
2019-05-28T16:47:27.261Z,19.70
2019-05-28T16:49:57.409Z,19.60
2019-05-28T16:52:27.547Z,19.50
2019-05-28T16:54:57.739Z,19.50
2019-05-28T16:57:27.863Z,19.50
2019-05-28T16:59:58.007Z,19.40
2019-05-28T17:02:28.173Z,19.20
2019-05-28T17:04:58.315Z,19.20
2019-05-28T17:07:28.415Z,19.20
2019-05-28T17:09:58.549Z,19.20
2019-05-28T17:12:28.762Z,19.20
2019-05-28T17:14:58.940Z,19.10
2019-05-28T17:17:43.673Z,19.10
2019-05-28T17:20:14.036Z,19.10
2019-05-28T17:23:09.006Z,19.00
2019-05-28T17:25:39.164Z,18.90
2019-05-28T17:28:32.410Z,18.90
2019-05-28T17:31:02.501Z,18.80
2019-05-28T17:33:52.996Z,18.70
2019-05-28T17:36:13.989Z,18.60
2019-05-28T17:38:44.128Z,18.50
2019-05-28T17:41:14.340Z,18.50
2019-05-28T17:43:44.468Z,18.30
2019-05-28T17:46:14.601Z,18.30
2019-05-28T17:48:44.727Z,18.30
2019-05-28T17:51:15.319Z,18.30
2019-05-28T17:53:45.453Z,18.30
2019-05-28T17:56:15.600Z,18.40
2019-05-28T17:58:46.045Z,18.40
2019-05-28T18:01:35.122Z,18.30
2019-05-28T18:04:05.769Z,18.40
2019-05-28T18:06:57.344Z,18.40
2019-05-28T18:09:27.499Z,18.50
2019-05-28T18:11:57.846Z,18.30
2019-05-28T18:14:28.000Z,18.40
2019-05-28T18:16:58.141Z,18.40
2019-05-28T18:19:28.446Z,18.40
2019-05-28T18:21:58.590Z,18.40
2019-05-28T18:24:28.761Z,18.40
2019-05-28T18:26:58.913Z,18.40
2019-05-28T18:29:29.260Z,18.30
2019-05-28T18:31:59.364Z,18.30
2019-05-28T18:34:29.480Z,18.40
2019-05-28T18:36:59.617Z,18.40
2019-05-28T18:39:48.219Z,18.40
2019-05-28T18:42:18.390Z,18.40
2019-05-28T18:44:57.728Z,18.40
2019-05-28T18:47:28.025Z,18.40
2019-05-28T18:50:03.386Z,18.30
2019-05-28T18:52:30.121Z,18.40
2019-05-28T18:55:00.267Z,18.30
2019-05-28T18:57:30.396Z,18.40
2019-05-28T19:00:00.550Z,18.30
2019-05-28T19:02:30.761Z,18.10
2019-05-28T19:05:01.050Z,17.90
2019-05-28T19:07:31.238Z,17.80
2019-05-28T19:10:01.391Z,17.90
2019-05-28T19:12:31.544Z,17.80
2019-05-28T19:15:01.684Z,17.80
2019-05-28T19:17:32.019Z,17.80
2019-05-28T19:20:02.357Z,17.80
2019-05-28T19:22:49.954Z,17.80
2019-05-28T19:25:20.235Z,17.70
2019-05-28T19:28:17.157Z,17.70
2019-05-28T19:30:35.371Z,17.70
2019-05-28T19:33:06.690Z,17.50
2019-05-28T19:35:36.884Z,17.50
2019-05-28T19:38:07.276Z,17.50
2019-05-28T19:40:39.271Z,17.60
2019-05-28T19:43:09.452Z,17.60
2019-05-28T19:45:39.584Z,17.70
2019-05-28T19:48:10.125Z,17.70
2019-05-28T19:50:40.248Z,17.80
2019-05-28T19:53:10.517Z,17.90
2019-05-28T19:55:40.681Z,17.90
2019-05-28T19:58:10.858Z,18.00
2019-05-28T20:00:41.476Z,18.00
2019-05-28T20:03:11.669Z,18.00
2019-05-28T20:06:00.414Z,18.10
2019-05-28T20:08:30.567Z,18.10
2019-05-28T20:11:22.965Z,18.10
2019-05-28T20:13:53.077Z,18.10
2019-05-28T20:16:43.651Z,18.10
2019-05-28T20:19:13.736Z,18.20
2019-05-28T20:21:43.860Z,18.10
2019-05-28T20:24:14.036Z,18.10
2019-05-28T20:26:45.410Z,18.10
2019-05-28T20:29:15.560Z,18.10
2019-05-28T20:31:45.692Z,18.00
2019-05-28T20:34:15.803Z,17.90
2019-05-28T20:36:45.937Z,17.70
2019-05-28T20:39:16.113Z,17.70
2019-05-28T20:41:46.266Z,17.70
2019-05-28T20:44:16.440Z,17.70
2019-05-28T20:46:46.506Z,17.70
2019-05-28T20:49:16.684Z,17.60
2019-05-28T20:51:46.837Z,17.60
2019-05-28T20:54:35.772Z,17.60
2019-05-28T20:57:06.037Z,17.50
2019-05-28T20:59:58.390Z,17.50
2019-05-28T21:02:28.553Z,17.50
2019-05-28T21:05:13.466Z,17.40
2019-05-28T21:07:31.079Z,17.40
2019-05-28T21:10:01.188Z,17.40
2019-05-28T21:12:43.317Z,17.30
2019-05-28T21:15:03.132Z,17.30
2019-05-28T21:17:34.165Z,17.20
2019-05-28T21:20:04.738Z,17.00
2019-05-28T21:22:34.909Z,16.90
2019-05-28T21:25:05.052Z,16.80
2019-05-28T21:27:35.245Z,16.70
2019-05-28T21:30:07.678Z,16.50
2019-05-28T21:32:37.865Z,16.40
2019-05-28T21:35:10.235Z,16.30
2019-05-28T21:37:51.013Z,16.20
2019-05-28T21:40:21.998Z,16.30
2019-05-28T21:43:09.925Z,16.30
2019-05-28T21:45:40.201Z,16.30
2019-05-28T21:48:31.255Z,16.40
2019-05-28T21:50:56.591Z,16.50
2019-05-28T21:53:26.917Z,16.60
2019-05-28T21:56:04.297Z,16.80
2019-05-28T21:58:34.433Z,16.80
2019-05-28T22:01:09.224Z,16.90
2019-05-28T22:03:45.391Z,16.90
2019-05-28T22:06:15.513Z,17.00
2019-05-28T22:12:27.040Z,16.90
2019-05-28T22:14:57.943Z,16.70
2019-05-28T22:17:28.076Z,16.70
2019-05-28T22:19:58.318Z,16.60
2019-05-28T22:22:28.391Z,16.70
2019-05-28T22:24:58.611Z,16.70
2019-05-28T22:27:28.760Z,16.90
2019-05-28T22:29:58.929Z,16.90
2019-05-28T22:32:29.081Z,16.90
2019-05-28T22:34:59.929Z,16.90
2019-05-28T22:37:30.082Z,16.80
2019-05-28T22:40:01.354Z,16.70
2019-05-28T22:42:35.930Z,16.50
2019-05-28T22:45:07.236Z,16.40
2019-05-28T22:47:59.222Z,16.30
2019-05-28T22:50:29.424Z,16.50
2019-05-28T22:53:21.857Z,16.50
2019-05-28T22:55:51.993Z,16.60
2019-05-28T22:58:42.126Z,16.80
2019-05-28T23:01:12.418Z,16.90
2019-05-28T23:03:42.545Z,17.00
2019-05-28T23:06:12.987Z,17.10
2019-05-28T23:08:43.101Z,17.10
2019-05-28T23:11:13.244Z,17.00
2019-05-28T23:13:46.768Z,17.10
2019-05-28T23:16:15.157Z,17.20
2019-05-28T23:18:45.272Z,17.20
2019-05-28T23:21:15.437Z,17.10
2019-05-28T23:23:45.558Z,17.00
2019-05-28T23:26:15.663Z,16.90
2019-05-28T23:28:45.879Z,16.80
2019-05-28T23:31:16.059Z,16.80
2019-05-28T23:33:46.193Z,16.60
2019-05-28T23:36:33.504Z,16.70
2019-05-28T23:39:05.303Z,16.90
2019-05-28T23:42:02.159Z,16.90
2019-05-28T23:44:33.627Z,17.00
2019-05-28T23:47:20.484Z,17.00
2019-05-28T23:49:50.660Z,17.10
2019-05-28T23:52:20.785Z,17.10
2019-05-28T23:54:50.953Z,17.20
2019-05-28T23:57:21.481Z,17.20
2019-05-28T23:59:51.657Z,17.30
